메인 페이지
METAR-TAF:

METAR-TAF

공항 :

에일라트, 이스라엘

위도: 29-43-25N, 경도: 35-00-41E, 고도: 88m

현재 날씨관측

예보는 52분 전, 06:50시(UTC)에 발표되었습니다.
11kt
온도 34°C
습도 22%
기압 1007 hPa
시정 10km 이상
1500m 미만 상공 구름 및 적란운 없음

METAR: LLER 210650Z 36011KT CAVOK 34/09 Q1007

시각: 10:42 (07:42 UTC)

예보

예보는 2 시간 41분 전, 05:01시(UTC)에 발표되었습니다.
예보 대상 시간: 21일 06시부터 22일 06시까지 (UTC)
10kt
시정 10km 이상
1500m 미만 상공 구름 및 적란운 없음
전환 중
21일 07시부터 21일 09시까지 (UTC)
북북동15kt
확률 40% :
일시적
21일 15시부터 21일 18시까지 (UTC)
북서15kt
전환 중
21일 18시부터 21일 20시까지 (UTC)
10kt

TAF: LLER 210501Z 2106/2206 36010KT CAVOK BECMG 2107/2109 02015KT PROB40 TEMPO 2115/2118 32015KT BECMG 2118/2120 36010KT TX43/2113Z TN29/2203Z

4,000개 이상의 공항 관측 자료 및 예보 (METAR 및 TAF 보고).

지도상에서 검색 가능한 기상관측소가 노란 점과 빨간 점으로 표시되어 있습니다.

기상관측소 명을 보려면 표시 위로 마우스를 이동하세요.

날씨 관측과 예보를 보려면 클릭하세요.

지도 변경 : 확대하려면 엑스 표시가 있는 녹색 버튼, 축소하려면 빼기 표시가 있는 녹색 버튼, 다음 페이지의 지도를 보려면 녹색 화살표를 클릭하세요.


METAR-TAF: